createdAt,value
2022-08-11T00:03:55.853Z,61.01
2022-08-11T00:09:27.509Z,60.86
2022-08-11T00:15:03.594Z,60.56
2022-08-11T00:20:35.290Z,60.98
2022-08-11T00:26:07.073Z,60.72
2022-08-11T00:31:38.709Z,60.95
2022-08-11T00:37:10.510Z,60.84
2022-08-11T00:42:42.221Z,61.31
2022-08-11T00:48:13.965Z,61.6
2022-08-11T00:53:45.630Z,61.39
2022-08-11T00:59:36.158Z,61.69
2022-08-11T01:04:56.068Z,60.31
2022-08-11T01:10:21.078Z,60.84
2022-08-11T01:15:57.919Z,60.8
2022-08-11T01:21:28.634Z,60.7
2022-08-11T01:27:00.356Z,60.57
2022-08-11T01:32:32.127Z,60.29
2022-08-11T01:38:03.822Z,60.77
2022-08-11T01:43:35.553Z,60.09
2022-08-11T01:50:11.030Z,60.4
2022-08-11T01:54:38.981Z,61.26
2022-08-11T02:00:10.746Z,61.14
2022-08-11T02:05:42.477Z,61.71
2022-08-11T02:11:14.337Z,61.43
2022-08-11T02:16:50.244Z,61.92
2022-08-11T02:22:21.996Z,62.49
2022-08-11T02:27:53.737Z,61.69
2022-08-11T02:33:27.765Z,62.83
2022-08-11T02:38:57.397Z,62.73
2022-08-11T02:44:28.868Z,63.1
2022-08-11T02:50:08.140Z,63.91
2022-08-11T02:55:58.407Z,64.29
2022-08-11T03:01:04.102Z,63.87
2022-08-11T03:06:35.790Z,64.45
2022-08-11T03:12:07.477Z,65.12
2022-08-11T03:17:45.601Z,65.54
2022-08-11T03:23:20.525Z,65.58
2022-08-11T03:28:49.097Z,66.46
2022-08-11T03:34:20.747Z,66.56
2022-08-11T03:39:57.097Z,66.79
2022-08-11T03:45:24.153Z,67.18
2022-08-11T03:50:56.168Z,67.87
2022-08-11T03:56:27.647Z,67.62
2022-08-11T04:01:59.526Z,68.08
2022-08-11T04:07:31.114Z,68.37
2022-08-11T04:13:02.874Z,69.16
2022-08-11T04:18:39.002Z,68.89
2022-08-11T04:24:39.701Z,69.42
2022-08-11T04:30:05.787Z,69.42
2022-08-11T04:35:14.209Z,69.61
2022-08-11T04:40:45.869Z,69.83
2022-08-11T04:46:17.585Z,69.86
2022-08-11T04:51:49.266Z,70.23
2022-08-11T04:57:20.962Z,70.33
2022-08-11T05:02:52.729Z,70.52
2022-08-11T05:08:24.766Z,70.32
2022-08-11T05:13:56.170Z,69.5
2022-08-11T05:19:32.269Z,70.14
2022-08-11T05:25:04.022Z,70.1
2022-08-11T05:30:35.737Z,70.12
2022-08-11T05:36:07.551Z,70.13
2022-08-11T05:41:39.236Z,69.47
2022-08-11T05:47:12.241Z,69.28
2022-08-11T05:52:43.258Z,69.38
2022-08-11T05:58:14.457Z,67.87
2022-08-11T06:03:59.031Z,67.57
2022-08-11T06:09:17.826Z,67.21
2022-08-11T06:14:49.593Z,65.59
2022-08-11T06:20:25.745Z,66.01
2022-08-11T06:25:57.394Z,64.47
2022-08-11T06:31:29.124Z,64.48
2022-08-11T06:37:00.798Z,63.98
2022-08-11T06:42:32.725Z,63.53
2022-08-11T06:48:04.256Z,63.32
2022-08-11T06:53:36.076Z,63.24
2022-08-11T06:59:07.885Z,62.12
2022-08-11T07:04:39.521Z,61.34
2022-08-11T07:10:11.286Z,61.32
2022-08-11T07:16:13.987Z,61.06
2022-08-11T07:22:03.878Z,61.16
2022-08-11T07:26:50.626Z,59.99
2022-08-11T07:32:22.433Z,60.61
2022-08-11T07:38:03.471Z,59.69
2022-08-11T07:43:25.852Z,59.56
2022-08-11T07:48:57.633Z,58.72
2022-08-11T07:54:33.778Z,58.95
2022-08-11T08:00:05.327Z,58.28
2022-08-11T08:05:32.818Z,57.48
2022-08-11T08:11:04.495Z,57.77
2022-08-11T08:16:36.190Z,56.97
2022-08-11T08:22:39.719Z,56.83
2022-08-11T08:27:44.199Z,55.91
2022-08-11T08:33:16.706Z,55.13
2022-08-11T08:38:47.693Z,54.87
2022-08-11T08:44:41.121Z,54.47
2022-08-11T08:49:50.941Z,52.94
2022-08-11T08:55:22.682Z,52.14
2022-08-11T09:00:54.517Z,51.62
2022-08-11T09:06:26.062Z,51.75
2022-08-11T09:11:57.880Z,51.16
2022-08-11T09:17:29.682Z,50.96
2022-08-11T09:24:07.617Z,50.74
2022-08-11T09:28:37.352Z,50.46
2022-08-11T09:34:09.103Z,49.98
2022-08-11T09:39:40.896Z,49.37
2022-08-11T09:45:14.306Z,49.0
2022-08-11T09:50:44.339Z,49.13
2022-08-11T09:56:16.277Z,48.7
2022-08-11T10:01:47.966Z,48.46
2022-08-11T10:07:19.538Z,48.15
2022-08-11T10:12:51.259Z,47.52
2022-08-11T10:18:23.009Z,47.54
2022-08-11T10:24:06.081Z,47.19
2022-08-11T10:29:44.342Z,47.11
2022-08-11T10:35:02.639Z,46.79
2022-08-11T10:40:34.371Z,47.49
2022-08-11T10:46:06.070Z,45.78
2022-08-11T10:51:53.855Z,45.99
2022-08-11T10:57:10.369Z,45.65
2022-08-11T11:02:42.185Z,45.2
2022-08-11T11:08:13.891Z,45.36
2022-08-11T11:13:55.568Z,45.55
2022-08-11T11:19:17.348Z,45.88
2022-08-11T11:24:53.377Z,45.4
2022-08-11T11:30:25.225Z,45.42
2022-08-11T11:35:56.864Z,45.16
2022-08-11T11:41:28.638Z,45.14
2022-08-11T11:47:00.285Z,45.0
2022-08-11T11:52:32.023Z,44.64
2022-08-11T11:58:04.101Z,44.54
2022-08-11T12:03:35.751Z,44.73
2022-08-11T12:09:07.312Z,44.87
2022-08-11T12:14:38.917Z,44.72
2022-08-11T12:20:33.829Z,43.73
2022-08-11T12:25:48.318Z,43.75
2022-08-11T12:31:18.517Z,43.96
2022-08-11T12:36:50.301Z,43.71
2022-08-11T12:42:21.933Z,44.18
2022-08-11T12:49:02.850Z,43.81
2022-08-11T12:53:25.432Z,43.94
2022-08-11T12:58:57.074Z,43.61
2022-08-11T13:04:29.646Z,43.27
2022-08-11T13:10:01.451Z,43.69
2022-08-11T13:15:33.212Z,42.92
2022-08-11T13:21:04.924Z,42.46
2022-08-11T13:26:50.624Z,42.27
2022-08-11T13:32:14.828Z,41.84
2022-08-11T13:38:20.498Z,42.15
2022-08-11T13:43:18.270Z,41.75
2022-08-11T13:48:50.101Z,42.08
2022-08-11T13:54:21.858Z,41.95
2022-08-11T13:59:56.507Z,41.5
2022-08-11T14:05:25.316Z,41.8
2022-08-11T14:10:57.039Z,41.33
2022-08-11T14:16:29.076Z,41.51
2022-08-11T14:22:07.777Z,40.88
2022-08-11T14:28:35.496Z,41.09
2022-08-11T14:33:20.282Z,40.91
2022-08-11T14:38:40.113Z,41.32
2022-08-11T14:44:14.984Z,41.21
2022-08-11T14:50:10.684Z,41.26
2022-08-11T14:55:15.203Z,41.09
2022-08-11T15:00:47.151Z,41.05
2022-08-11T15:06:18.662Z,41.25
2022-08-11T15:11:50.738Z,41.04
2022-08-11T15:17:33.689Z,41.51
2022-08-11T15:22:54.295Z,41.56
2022-08-11T15:28:30.388Z,41.31
2022-08-11T15:34:02.226Z,41.54
2022-08-11T15:39:34.023Z,41.4
2022-08-11T15:45:06.091Z,41.43
2022-08-11T15:50:37.300Z,41.34
2022-08-11T15:56:09.129Z,41.05
2022-08-11T16:01:40.952Z,41.46
2022-08-11T16:07:13.272Z,41.61
2022-08-11T16:12:44.701Z,41.51
2022-08-11T16:18:16.121Z,41.8
2022-08-11T16:23:47.776Z,41.95
2022-08-11T16:29:24.053Z,42.02
2022-08-11T16:34:55.591Z,42.3
2022-08-11T16:40:27.311Z,42.09
2022-08-11T16:45:59.069Z,42.22
2022-08-11T16:51:30.966Z,42.15
2022-08-11T16:57:18.694Z,42.03
2022-08-11T17:02:34.213Z,42.31
2022-08-11T17:08:05.959Z,42.34
2022-08-11T17:13:37.650Z,42.52
2022-08-11T17:19:09.392Z,42.26
2022-08-11T17:24:41.061Z,43.07
2022-08-11T17:30:17.162Z,43.38
2022-08-11T17:35:48.883Z,43.58
2022-08-11T17:41:24.010Z,44.19
2022-08-11T17:46:52.341Z,44.29
2022-08-11T17:52:24.142Z,43.87
2022-08-11T17:57:55.803Z,44.17
2022-08-11T18:03:27.549Z,44.46
2022-08-11T18:08:59.338Z,45.55
2022-08-11T18:14:30.903Z,46.13
2022-08-11T18:20:02.664Z,46.8
2022-08-11T18:25:34.420Z,45.49
2022-08-11T18:31:13.590Z,48.31
2022-08-11T18:36:44.249Z,47.81
2022-08-11T18:42:30.049Z,47.08
2022-08-11T18:47:53.928Z,47.84
2022-08-11T18:53:19.441Z,48.87
2022-08-11T18:58:51.174Z,49.0
2022-08-11T19:04:23.257Z,47.38
2022-08-11T19:09:54.870Z,47.75
2022-08-11T19:15:26.702Z,49.13
2022-08-11T19:20:58.139Z,49.08
2022-08-11T19:26:29.795Z,50.04
2022-08-11T19:32:05.886Z,50.0
2022-08-11T19:37:44.693Z,50.2
2022-08-11T19:43:25.975Z,51.12
2022-08-11T19:48:41.129Z,50.92
2022-08-11T19:54:12.826Z,51.21
2022-08-11T19:59:44.490Z,51.23
2022-08-11T20:05:16.202Z,50.25
2022-08-11T20:10:47.987Z,51.32
2022-08-11T20:16:19.699Z,51.79
2022-08-11T20:21:51.547Z,52.02
2022-08-11T20:27:25.241Z,51.57
2022-08-11T20:32:59.250Z,51.99
2022-08-11T20:38:30.871Z,51.87
2022-08-11T20:44:09.487Z,51.89
2022-08-11T20:50:34.743Z,51.51
2022-08-11T20:55:19.232Z,52.82
2022-08-11T21:00:40.195Z,50.44
2022-08-11T21:06:11.610Z,52.01
2022-08-11T21:11:45.739Z,52.66
2022-08-11T21:18:07.227Z,52.35
2022-08-11T21:23:06.220Z,52.47
2022-08-11T21:28:19.344Z,50.61
2022-08-11T21:33:55.418Z,52.4
2022-08-11T21:39:27.325Z,50.05
2022-08-11T21:44:58.899Z,50.89
2022-08-11T21:50:30.452Z,51.24
2022-08-11T21:56:02.358Z,52.91
2022-08-11T22:01:35.084Z,51.89
2022-08-11T22:07:05.820Z,51.67
2022-08-11T22:12:45.122Z,51.54
2022-08-11T22:18:09.270Z,51.5
2022-08-11T22:23:40.958Z,51.72
2022-08-11T22:29:12.670Z,51.83
2022-08-11T22:34:54.019Z,51.76
2022-08-11T22:40:20.518Z,52.06
2022-08-11T22:45:52.222Z,53.22
2022-08-11T22:51:23.978Z,52.26
2022-08-11T22:56:55.672Z,52.43
2022-08-11T23:02:27.404Z,52.7
2022-08-11T23:07:59.126Z,54.72
2022-08-11T23:13:30.855Z,55.01
2022-08-11T23:19:02.883Z,55.19
2022-08-11T23:24:34.303Z,55.77
2022-08-11T23:30:06.086Z,55.9
2022-08-11T23:35:59.564Z,56.27
2022-08-11T23:41:16.015Z,56.33
2022-08-11T23:46:47.599Z,56.6
2022-08-11T23:52:19.312Z,56.83
2022-08-11T23:57:51.012Z,56.58
